createdAt,value
2022-12-18T00:01:39.738Z,32.53
2022-12-18T00:04:09.970Z,33.05
2022-12-18T00:06:38.265Z,31.30
2022-12-18T00:09:07.690Z,32.95
2022-12-18T00:11:36.613Z,32.28
2022-12-18T00:14:04.882Z,32.00
2022-12-18T00:16:34.097Z,29.65
2022-12-18T00:19:03.090Z,32.13
2022-12-18T00:21:32.631Z,34.70
2022-12-18T00:24:01.906Z,32.80
2022-12-18T00:26:33.508Z,32.53
2022-12-18T00:29:06.411Z,33.53
2022-12-18T00:31:35.830Z,31.65
2022-12-18T00:34:04.769Z,32.47
2022-12-18T00:36:36.370Z,30.05
2022-12-18T00:39:07.085Z,30.65
2022-12-18T00:41:54.278Z,30.30
2022-12-18T00:44:22.352Z,30.75
2022-12-18T00:46:50.576Z,30.92
2022-12-18T00:49:22.666Z,31.02
2022-12-18T00:51:51.478Z,29.88
2022-12-18T00:54:20.059Z,29.55
2022-12-18T00:56:50.110Z,29.80
2022-12-18T00:59:20.057Z,30.35
2022-12-18T01:01:48.847Z,30.60
2022-12-18T01:04:17.313Z,33.28
2022-12-18T01:06:47.163Z,32.97
2022-12-18T01:09:15.398Z,32.72
2022-12-18T01:11:43.799Z,31.58
2022-12-18T01:14:14.073Z,31.90
2022-12-18T01:16:42.272Z,32.83
2022-12-18T01:19:11.420Z,31.70
2022-12-18T01:21:39.471Z,33.15
2022-12-18T01:24:08.047Z,32.35
2022-12-18T01:26:36.179Z,33.25
2022-12-18T01:29:04.971Z,32.97
2022-12-18T01:31:35.872Z,32.35
2022-12-18T01:34:06.448Z,30.75
2022-12-18T01:36:39.906Z,30.35
2022-12-18T01:39:10.374Z,29.23
2022-12-18T01:41:52.709Z,29.98
2022-12-18T01:45:03.408Z,29.55
2022-12-18T01:47:38.704Z,29.13
2022-12-18T01:50:10.355Z,28.98
2022-12-18T01:52:39.692Z,30.38
2022-12-18T01:55:09.239Z,30.67
2022-12-18T01:57:38.279Z,30.25
2022-12-18T02:00:10.377Z,31.23
2022-12-18T02:02:43.687Z,29.40
2022-12-18T02:05:13.858Z,30.80
2022-12-18T02:07:51.815Z,30.10
2022-12-18T02:10:29.001Z,31.20
2022-12-18T02:13:04.297Z,29.30
2022-12-18T02:15:41.316Z,28.48
2022-12-18T02:18:15.243Z,27.55
2022-12-18T02:20:48.992Z,26.98
2022-12-18T02:23:36.006Z,28.42
2022-12-18T02:26:16.431Z,29.23
2022-12-18T02:28:48.997Z,28.60
2022-12-18T02:31:24.297Z,30.50
2022-12-18T02:33:58.053Z,30.95
2022-12-18T02:36:28.497Z,30.98
2022-12-18T02:39:00.687Z,31.02
2022-12-18T02:41:31.654Z,29.27
2022-12-18T02:44:02.588Z,32.00
2022-12-18T02:46:35.807Z,31.15
2022-12-18T02:49:21.372Z,32.75
2022-12-18T02:51:55.644Z,32.05
2022-12-18T02:54:44.751Z,31.80
2022-12-18T02:57:21.673Z,32.13
2022-12-18T02:59:58.689Z,32.05
2022-12-18T03:02:32.808Z,32.60
2022-12-18T03:07:39.008Z,27.15
2022-12-18T03:10:14.298Z,28.52
2022-12-18T03:12:48.905Z,31.63
2022-12-18T03:15:21.313Z,31.05
2022-12-18T03:17:59.819Z,31.58
2022-12-18T03:20:33.054Z,31.73
2022-12-18T03:23:06.348Z,32.92
2022-12-18T03:25:35.523Z,31.87
2022-12-18T03:28:09.500Z,31.15
2022-12-18T03:33:12.975Z,30.88
2022-12-18T03:35:46.270Z,31.13
2022-12-18T03:38:15.713Z,31.65
2022-12-18T03:40:58.382Z,31.15
2022-12-18T03:43:41.842Z,33.63
2022-12-18T03:46:18.357Z,33.45
2022-12-18T03:48:50.422Z,32.22
2022-12-18T03:51:27.170Z,32.33
2022-12-18T03:54:00.450Z,32.70
2022-12-18T03:56:37.691Z,33.63
2022-12-18T03:59:11.154Z,23.80
2022-12-18T04:01:44.958Z,33.10
2022-12-18T04:04:17.005Z,32.00
2022-12-18T04:06:49.016Z,32.20
2022-12-18T04:09:21.342Z,23.80
2022-12-18T04:11:50.172Z,31.25
2022-12-18T04:14:19.946Z,31.90
2022-12-18T04:16:52.619Z,32.22
2022-12-18T04:19:25.163Z,31.23
2022-12-18T04:21:54.780Z,32.55
2022-12-18T04:24:23.047Z,35.08
2022-12-18T04:27:07.232Z,36.20
2022-12-18T04:29:43.046Z,39.17
2022-12-18T04:32:12.096Z,36.83
2022-12-18T04:34:41.478Z,34.58
2022-12-18T04:37:09.776Z,36.00
2022-12-18T04:39:37.985Z,32.92
2022-12-18T04:42:11.675Z,32.17
2022-12-18T04:44:39.723Z,31.52
2022-12-18T04:47:09.559Z,31.70
2022-12-18T04:49:37.600Z,31.15
2022-12-18T04:52:05.939Z,30.30
2022-12-18T04:54:34.000Z,30.52
2022-12-18T04:57:02.056Z,29.40
2022-12-18T04:59:30.162Z,31.52
2022-12-18T05:02:00.367Z,29.80
2022-12-18T05:04:29.928Z,30.00
2022-12-18T05:06:58.340Z,30.45
2022-12-18T05:09:26.423Z,32.72
2022-12-18T05:11:54.981Z,29.40
2022-12-18T05:14:23.033Z,27.35
2022-12-18T05:16:51.485Z,31.15
2022-12-18T05:19:19.846Z,31.02
2022-12-18T05:21:49.337Z,29.88
2022-12-18T05:24:17.567Z,29.80
2022-12-18T05:26:45.631Z,30.05
2022-12-18T05:29:14.212Z,30.60
2022-12-18T05:31:42.982Z,31.10
2022-12-18T05:34:12.046Z,32.55
2022-12-18T05:36:40.942Z,30.88
2022-12-18T05:39:10.483Z,32.08
2022-12-18T05:41:38.496Z,31.67
2022-12-18T05:44:06.999Z,33.00
2022-12-18T05:46:35.149Z,34.00
2022-12-18T05:49:04.020Z,34.22
2022-12-18T05:51:32.436Z,31.70
2022-12-18T05:54:00.460Z,31.63
2022-12-18T05:56:30.040Z,36.42
2022-12-18T05:58:58.215Z,36.47
2022-12-18T06:01:28.381Z,34.42
2022-12-18T06:03:57.291Z,29.98
2022-12-18T06:06:27.111Z,29.27
2022-12-18T06:08:56.043Z,28.75
2022-12-18T06:11:25.825Z,30.35
2022-12-18T06:13:59.018Z,30.27
2022-12-18T06:16:27.860Z,34.35
2022-12-18T06:18:58.156Z,29.60
2022-12-18T06:21:26.225Z,36.03
2022-12-18T06:23:54.311Z,34.58
2022-12-18T06:26:27.843Z,38.42
2022-12-18T06:28:58.083Z,33.53
2022-12-18T06:31:27.261Z,32.72
2022-12-18T06:33:55.388Z,35.40
2022-12-18T06:36:23.663Z,33.63
2022-12-18T06:38:51.719Z,30.10
2022-12-18T06:41:22.631Z,27.80
2022-12-18T06:43:50.659Z,29.05
2022-12-18T06:46:20.326Z,29.13
2022-12-18T06:48:51.874Z,28.95
2022-12-18T06:51:21.758Z,28.50
2022-12-18T06:53:49.887Z,29.50
2022-12-18T06:56:18.194Z,27.45
2022-12-18T06:58:48.578Z,30.65
2022-12-18T07:01:18.156Z,31.33
2022-12-18T07:03:48.824Z,35.28
2022-12-18T07:06:18.602Z,34.35
2022-12-18T07:08:47.484Z,34.50
2022-12-18T07:11:15.928Z,29.92
2022-12-18T07:13:44.029Z,29.10
2022-12-18T07:16:20.851Z,31.30
2022-12-18T07:18:53.626Z,26.92
2022-12-18T07:21:22.181Z,27.50
2022-12-18T07:23:50.405Z,27.73
2022-12-18T07:26:20.796Z,26.55
2022-12-18T07:28:49.296Z,28.05
2022-12-18T07:31:19.555Z,27.73
2022-12-18T07:33:50.682Z,29.27
2022-12-18T07:36:21.027Z,27.92
2022-12-18T07:38:49.927Z,28.92
2022-12-18T07:41:19.794Z,27.40
2022-12-18T07:43:48.755Z,26.15
2022-12-18T07:46:17.737Z,26.35
2022-12-18T07:48:49.470Z,26.67
2022-12-18T07:51:20.381Z,28.70
2022-12-18T07:53:52.013Z,26.90
2022-12-18T07:56:30.025Z,25.80
2022-12-18T07:58:59.879Z,27.02
2022-12-18T08:01:28.177Z,26.55
2022-12-18T08:03:56.691Z,26.13
2022-12-18T08:06:26.262Z,24.73
2022-12-18T08:08:55.496Z,28.58
2022-12-18T08:11:25.115Z,28.58
2022-12-18T08:13:53.449Z,27.33
2022-12-18T08:16:22.346Z,29.58
2022-12-18T08:18:50.771Z,32.60
2022-12-18T08:21:23.846Z,32.00
2022-12-18T08:23:54.831Z,32.53
2022-12-18T08:26:23.988Z,33.60
2022-12-18T08:28:53.123Z,29.20
2022-12-18T08:31:22.059Z,28.90
2022-12-18T08:33:52.438Z,28.90
2022-12-18T08:36:20.556Z,30.83
2022-12-18T08:38:49.263Z,25.80
2022-12-18T08:41:19.484Z,29.00
2022-12-18T08:44:04.951Z,29.98
2022-12-18T08:46:37.932Z,27.63
2022-12-18T08:49:06.755Z,26.17
2022-12-18T08:51:35.418Z,26.25
2022-12-18T08:54:04.635Z,30.83
2022-12-18T08:56:36.128Z,27.30
2022-12-18T08:59:05.302Z,28.73
2022-12-18T09:01:33.750Z,27.63
2022-12-18T09:04:02.669Z,27.25
2022-12-18T09:06:30.731Z,28.77
2022-12-18T09:08:59.427Z,28.00
2022-12-18T09:11:29.517Z,28.73
2022-12-18T09:14:00.423Z,33.40
2022-12-18T09:16:32.561Z,60.33
2022-12-18T09:19:02.004Z,48.60
2022-12-18T09:21:33.486Z,31.90
2022-12-18T09:24:08.813Z,27.33
2022-12-18T09:26:37.888Z,24.80
2022-12-18T09:29:09.191Z,29.35
2022-12-18T09:31:38.762Z,28.80
2022-12-18T09:34:08.629Z,27.13
2022-12-18T09:36:36.804Z,30.00
2022-12-18T09:39:08.578Z,35.28
2022-12-18T09:41:48.958Z,26.67
2022-12-18T09:44:24.861Z,28.52
2022-12-18T09:46:59.376Z,27.98
2022-12-18T09:49:32.127Z,27.73
2022-12-18T09:52:06.563Z,27.63
2022-12-18T09:57:06.533Z,27.10
2022-12-18T09:59:40.698Z,27.98
2022-12-18T10:02:20.175Z,31.20
2022-12-18T10:05:01.753Z,26.88
2022-12-18T10:07:40.563Z,30.15
2022-12-18T10:10:18.541Z,29.00
2022-12-18T10:13:04.038Z,26.73
2022-12-18T10:15:42.119Z,26.77
2022-12-18T10:18:26.219Z,28.17
2022-12-18T10:20:59.044Z,27.45
2022-12-18T10:23:34.578Z,26.67
2022-12-18T10:26:06.739Z,27.98
2022-12-18T10:28:38.468Z,28.38
2022-12-18T10:31:14.873Z,26.65
2022-12-18T10:33:42.973Z,26.15
2022-12-18T10:36:11.239Z,28.50
2022-12-18T10:38:40.091Z,27.33
2022-12-18T10:41:27.419Z,26.08
2022-12-18T10:44:13.536Z,25.65
2022-12-18T10:46:43.636Z,26.20
2022-12-18T10:49:23.408Z,24.42
2022-12-18T10:51:52.993Z,24.67
2022-12-18T10:54:24.996Z,29.08
2022-12-18T10:56:53.109Z,22.77
2022-12-18T10:59:21.627Z,23.20
2022-12-18T11:01:57.389Z,24.17
2022-12-18T11:04:27.689Z,23.02
2022-12-18T11:07:02.093Z,23.48
2022-12-18T11:12:01.371Z,22.70
2022-12-18T11:14:31.437Z,24.40
2022-12-18T11:17:25.422Z,23.45
2022-12-18T11:19:55.296Z,30.42
2022-12-18T11:22:27.596Z,26.75
2022-12-18T11:27:54.613Z,23.67
2022-12-18T11:30:25.260Z,25.40
2022-12-18T11:32:58.905Z,27.20
2022-12-18T11:35:38.269Z,27.10
2022-12-18T11:38:13.181Z,24.48
2022-12-18T11:40:46.199Z,23.98
2022-12-18T11:43:19.055Z,23.88
2022-12-18T11:45:53.166Z,26.00
2022-12-18T11:48:27.955Z,24.17
2022-12-18T11:50:58.759Z,27.23
2022-12-18T11:53:28.229Z,23.95
2022-12-18T11:56:07.031Z,25.58
2022-12-18T11:58:45.777Z,25.30
2022-12-18T12:01:26.473Z,23.02
2022-12-18T12:04:29.635Z,26.75
2022-12-18T12:07:06.861Z,25.63
2022-12-18T12:09:43.229Z,24.75
2022-12-18T12:12:26.686Z,24.30
2022-12-18T12:15:04.182Z,24.25
2022-12-18T12:17:39.568Z,22.48
2022-12-18T12:20:19.760Z,24.50
2022-12-18T12:22:57.221Z,26.67
2022-12-18T12:25:35.571Z,27.00
2022-12-18T12:28:17.935Z,25.55
2022-12-18T12:30:57.901Z,26.27
2022-12-18T12:33:39.333Z,26.63
2022-12-18T12:36:20.976Z,23.98
2022-12-18T12:38:53.963Z,25.70
2022-12-18T12:41:43.964Z,26.10
2022-12-18T12:44:21.329Z,26.05
2022-12-18T12:46:53.096Z,24.98
2022-12-18T12:49:27.896Z,27.65
2022-12-18T12:52:05.567Z,25.23
2022-12-18T12:54:37.208Z,28.25
2022-12-18T12:57:11.893Z,26.70
2022-12-18T12:59:54.106Z,27.60
2022-12-18T13:02:28.925Z,26.55
2022-12-18T13:05:03.263Z,35.88
2022-12-18T13:10:26.879Z,25.35
2022-12-18T13:12:59.478Z,29.60
2022-12-18T13:15:32.838Z,24.67
2022-12-18T13:18:20.177Z,25.08
2022-12-18T13:20:55.139Z,25.25
2022-12-18T13:23:37.491Z,25.83
2022-12-18T13:26:36.889Z,27.00
2022-12-18T13:29:07.113Z,25.38
2022-12-18T13:32:02.413Z,29.17
2022-12-18T13:34:32.751Z,25.75
2022-12-18T13:37:35.229Z,26.98
2022-12-18T13:40:39.429Z,25.17
2022-12-18T13:43:23.182Z,29.70
2022-12-18T13:46:00.720Z,26.67
2022-12-18T13:48:31.257Z,28.60
2022-12-18T13:51:04.391Z,29.25
2022-12-18T13:53:36.929Z,29.42
2022-12-18T13:56:07.814Z,30.20
2022-12-18T13:58:35.895Z,29.10
2022-12-18T14:01:05.741Z,28.60
2022-12-18T14:03:33.992Z,25.98
2022-12-18T14:06:06.604Z,28.20
2022-12-18T14:08:39.945Z,26.90
2022-12-18T14:11:22.302Z,27.35
2022-12-18T14:13:51.473Z,28.25
2022-12-18T14:16:20.287Z,30.60
2022-12-18T14:18:55.503Z,28.52
2022-12-18T14:21:30.361Z,29.90
2022-12-18T14:24:19.560Z,28.77
2022-12-18T14:26:50.801Z,25.83
2022-12-18T14:29:25.804Z,27.25
2022-12-18T14:32:16.880Z,27.15
2022-12-18T14:34:46.033Z,27.13
2022-12-18T14:37:16.760Z,29.77
2022-12-18T14:39:55.736Z,27.52
2022-12-18T14:42:29.112Z,33.20
2022-12-18T14:45:42.126Z,27.73
2022-12-18T14:48:16.321Z,28.52
2022-12-18T14:51:02.053Z,30.70
2022-12-18T14:53:54.439Z,29.55
2022-12-18T14:56:24.703Z,30.20
2022-12-18T14:58:57.516Z,34.00
2022-12-18T15:01:29.316Z,33.92
2022-12-18T15:03:58.913Z,27.15
2022-12-18T15:06:33.320Z,34.08
2022-12-18T15:11:47.760Z,31.25
2022-12-18T15:14:40.798Z,28.00
2022-12-18T15:17:19.004Z,26.90
2022-12-18T15:19:49.012Z,27.77
2022-12-18T15:22:22.248Z,28.63
2022-12-18T15:24:52.426Z,27.63
2022-12-18T15:27:24.101Z,29.38
2022-12-18T15:30:13.739Z,28.65
2022-12-18T15:32:42.671Z,26.42
2022-12-18T15:35:16.638Z,27.08
2022-12-18T15:37:45.533Z,29.63
2022-12-18T15:40:17.911Z,31.58
2022-12-18T15:43:04.943Z,30.63
2022-12-18T15:45:34.439Z,31.42
2022-12-18T15:48:10.895Z,31.20
2022-12-18T15:50:39.038Z,29.95
2022-12-18T15:53:07.156Z,30.85
2022-12-18T15:55:56.557Z,31.17
2022-12-18T15:58:28.921Z,30.63
2022-12-18T16:01:01.366Z,31.05
2022-12-18T16:03:29.529Z,31.58
2022-12-18T16:05:59.313Z,33.63
2022-12-18T16:08:28.152Z,32.10
2022-12-18T16:10:57.010Z,31.08
2022-12-18T16:13:25.298Z,32.78
2022-12-18T16:15:53.400Z,32.70
2022-12-18T16:18:23.296Z,31.17
2022-12-18T16:20:51.584Z,31.77
2022-12-18T16:23:19.726Z,30.10
2022-12-18T16:25:48.635Z,30.10
2022-12-18T16:28:16.759Z,32.72
2022-12-18T16:30:45.844Z,31.50
2022-12-18T16:33:14.155Z,29.45
2022-12-18T16:35:43.811Z,30.73
2022-12-18T16:38:12.341Z,31.25
2022-12-18T16:41:02.936Z,31.73
2022-12-18T16:43:31.018Z,28.45
2022-12-18T16:46:01.175Z,28.60
2022-12-18T16:48:29.314Z,30.25
2022-12-18T16:51:03.694Z,31.77
2022-12-18T16:53:33.614Z,32.63
2022-12-18T16:56:03.579Z,31.70
2022-12-18T16:58:33.079Z,37.60
2022-12-18T17:01:01.217Z,36.53
2022-12-18T17:03:29.370Z,34.53
2022-12-18T17:06:05.613Z,33.05
2022-12-18T17:08:33.967Z,31.83
2022-12-18T17:11:05.854Z,32.63
2022-12-18T17:13:34.096Z,32.22
2022-12-18T17:16:06.630Z,33.55
2022-12-18T17:18:36.474Z,34.42
2022-12-18T17:21:09.487Z,34.83
2022-12-18T17:23:38.713Z,35.42
2022-12-18T17:26:08.371Z,34.08
2022-12-18T17:28:37.505Z,32.58
2022-12-18T17:31:12.803Z,36.15
2022-12-18T17:33:42.075Z,35.00
2022-12-18T17:36:12.582Z,37.20
2022-12-18T17:38:41.454Z,35.08
2022-12-18T17:41:11.523Z,34.58
2022-12-18T17:43:45.615Z,34.92
2022-12-18T17:46:15.400Z,35.05
2022-12-18T17:48:43.824Z,37.45
2022-12-18T17:51:14.062Z,33.05
2022-12-18T17:53:42.659Z,34.97
2022-12-18T17:56:14.107Z,38.40
2022-12-18T17:58:43.182Z,36.00
2022-12-18T18:01:15.133Z,33.72
2022-12-18T18:03:45.478Z,37.42
2022-12-18T18:06:18.144Z,38.53
2022-12-18T18:08:46.489Z,36.75
2022-12-18T18:11:34.808Z,46.08
2022-12-18T18:14:05.235Z,40.35
2022-12-18T18:16:37.214Z,54.33
2022-12-18T18:19:08.077Z,46.05
2022-12-18T18:21:40.442Z,47.33
2022-12-18T18:24:10.945Z,39.67
2022-12-18T18:26:39.849Z,37.35
2022-12-18T18:29:11.938Z,33.50
2022-12-18T18:31:40.913Z,35.15
2022-12-18T18:34:15.949Z,34.25
2022-12-18T18:36:46.587Z,30.63
2022-12-18T18:39:15.886Z,32.80
2022-12-18T18:41:47.194Z,33.45
2022-12-18T18:44:17.005Z,36.67
2022-12-18T18:46:45.642Z,36.13
2022-12-18T18:49:14.249Z,38.78
2022-12-18T18:51:42.551Z,36.33
2022-12-18T18:54:12.337Z,34.88
2022-12-18T18:57:11.995Z,36.33
2022-12-18T18:59:32.065Z,36.83
2022-12-18T19:02:04.762Z,35.97
2022-12-18T19:04:45.648Z,36.95
2022-12-18T19:07:18.476Z,35.83
2022-12-18T19:10:04.808Z,30.77
2022-12-18T19:12:53.740Z,34.28
2022-12-18T19:15:26.539Z,34.85
2022-12-18T19:17:54.988Z,31.63
2022-12-18T19:20:23.193Z,32.10
2022-12-18T19:22:55.596Z,31.38
2022-12-18T19:25:38.576Z,30.08
2022-12-18T19:28:21.491Z,28.27
2022-12-18T19:30:57.610Z,28.30
2022-12-18T19:33:44.312Z,29.38
2022-12-18T19:36:15.525Z,34.45
2022-12-18T19:38:45.439Z,32.50
2022-12-18T19:41:15.821Z,34.83
2022-12-18T19:43:45.498Z,37.15
2022-12-18T19:46:16.195Z,35.60
2022-12-18T19:48:45.422Z,39.85
2022-12-18T19:51:16.349Z,33.65
2022-12-18T19:53:44.732Z,33.88
2022-12-18T19:56:16.746Z,32.53
2022-12-18T19:58:47.004Z,39.45
2022-12-18T20:01:17.104Z,35.22
2022-12-18T20:03:51.608Z,32.10
2022-12-18T20:06:26.637Z,33.05
2022-12-18T20:08:59.590Z,33.90
2022-12-18T20:11:31.043Z,33.33
2022-12-18T20:13:59.791Z,35.15
2022-12-18T20:16:28.009Z,33.88
2022-12-18T20:18:59.631Z,34.67
2022-12-18T20:21:28.501Z,34.08
2022-12-18T20:23:57.260Z,33.35
2022-12-18T20:26:25.848Z,36.25
2022-12-18T20:28:56.179Z,33.92
2022-12-18T20:31:25.126Z,32.25
2022-12-18T20:33:55.652Z,34.90
2022-12-18T20:36:28.291Z,30.52
2022-12-18T20:39:00.638Z,30.35
2022-12-18T20:41:38.135Z,30.58
2022-12-18T20:44:21.600Z,31.58
2022-12-18T20:46:55.612Z,30.55
2022-12-18T20:49:25.513Z,31.08
2022-12-18T20:51:54.873Z,29.48
2022-12-18T20:54:25.705Z,33.47
2022-12-18T20:56:57.896Z,32.65
2022-12-18T20:59:27.399Z,32.13
2022-12-18T21:01:55.838Z,34.13
2022-12-18T21:04:24.652Z,31.10
2022-12-18T21:07:00.493Z,31.83
2022-12-18T21:09:38.203Z,31.02
2022-12-18T21:12:25.815Z,30.15
2022-12-18T21:14:55.392Z,29.40
2022-12-18T21:17:23.929Z,29.58
2022-12-18T21:19:54.797Z,38.50
2022-12-18T21:22:23.364Z,28.92
2022-12-18T21:24:52.656Z,30.38
2022-12-18T21:27:21.221Z,29.50
2022-12-18T21:29:49.528Z,29.17
2022-12-18T21:32:23.704Z,29.23
2022-12-18T21:34:53.755Z,31.38
2022-12-18T21:37:21.937Z,31.42
2022-12-18T21:39:51.131Z,29.38
2022-12-18T21:42:36.734Z,29.17
2022-12-18T21:45:05.504Z,28.23
2022-12-18T21:47:36.095Z,29.98
2022-12-18T21:50:05.100Z,27.15
2022-12-18T21:52:33.281Z,29.08
2022-12-18T21:55:08.466Z,29.45
2022-12-18T21:57:38.331Z,28.63
2022-12-18T22:00:08.882Z,29.33
2022-12-18T22:02:44.333Z,31.45
2022-12-18T22:05:12.659Z,31.15
2022-12-18T22:07:41.401Z,29.30
2022-12-18T22:10:10.281Z,29.17
2022-12-18T22:12:43.112Z,29.90
2022-12-18T22:15:21.501Z,30.70
2022-12-18T22:17:52.692Z,28.10
2022-12-18T22:20:26.328Z,27.88
2022-12-18T22:22:54.948Z,29.17
2022-12-18T22:25:24.002Z,28.95
2022-12-18T22:28:06.798Z,30.25
2022-12-18T22:30:35.316Z,27.05
2022-12-18T22:33:05.303Z,29.67
2022-12-18T22:35:33.381Z,28.38
2022-12-18T22:38:02.774Z,29.52
2022-12-18T22:40:31.248Z,28.77
2022-12-18T22:42:59.607Z,30.20
2022-12-18T22:45:28.998Z,30.48
2022-12-18T22:47:57.644Z,29.95
2022-12-18T22:50:27.217Z,32.88
2022-12-18T22:52:55.487Z,35.40
2022-12-18T22:55:23.680Z,39.38
2022-12-18T22:57:51.775Z,40.70
2022-12-18T23:00:24.291Z,41.03
2022-12-18T23:02:59.984Z,40.33
2022-12-18T23:05:31.859Z,41.42
2022-12-18T23:08:00.691Z,42.22
2022-12-18T23:10:29.041Z,39.20
2022-12-18T23:12:57.309Z,38.17
2022-12-18T23:15:27.920Z,40.97
2022-12-18T23:17:58.707Z,42.92
2022-12-18T23:20:27.957Z,40.47
2022-12-18T23:22:57.422Z,39.42
2022-12-18T23:25:25.441Z,38.38
2022-12-18T23:27:53.499Z,39.50
2022-12-18T23:30:22.116Z,38.42
2022-12-18T23:32:50.268Z,39.20
2022-12-18T23:35:18.812Z,38.17
2022-12-18T23:38:03.672Z,38.58
2022-12-18T23:40:33.158Z,36.15
2022-12-18T23:43:01.285Z,37.33
2022-12-18T23:45:29.408Z,36.53
2022-12-18T23:47:57.841Z,36.58
2022-12-18T23:50:29.287Z,37.53
2022-12-18T23:53:04.710Z,37.22
2022-12-18T23:55:35.716Z,37.60
2022-12-18T23:58:05.515Z,38.88
